sensor_id;sensor_type;location;lat;lon;timestamp;pressure;altitude;pressure_sealevel;temperature;humidity
13041;BME280;6587;42.728;23.288;2024-01-15T00:00:08;94832.97;;;-5.01;82.85
13041;BME280;6587;42.728;23.288;2024-01-15T00:02:38;94814.94;;;-4.84;82.80
13041;BME280;6587;42.728;23.288;2024-01-15T00:05:07;94822.72;;;-4.62;82.16
13041;BME280;6587;42.728;23.288;2024-01-15T00:07:34;94823.75;;;-4.63;81.95
13041;BME280;6587;42.728;23.288;2024-01-15T00:10:03;94812.47;;;-4.58;80.80
13041;BME280;6587;42.728;23.288;2024-01-15T00:12:32;94822.72;;;-4.84;82.42
13041;BME280;6587;42.728;23.288;2024-01-15T00:14:59;94816.69;;;-4.93;83.10
13041;BME280;6587;42.728;23.288;2024-01-15T00:17:26;94824.03;;;-4.73;83.20
13041;BME280;6587;42.728;23.288;2024-01-15T00:19:53;94816.28;;;-5.09;83.55
13041;BME280;6587;42.728;23.288;2024-01-15T00:22:23;94809.97;;;-4.94;83.65
13041;BME280;6587;42.728;23.288;2024-01-15T00:24:50;94814.50;;;-4.78;83.46
13041;BME280;6587;42.728;23.288;2024-01-15T00:27:17;94828.97;;;-4.85;83.22
13041;BME280;6587;42.728;23.288;2024-01-15T00:29:44;94821.88;;;-4.71;81.84
13041;BME280;6587;42.728;23.288;2024-01-15T00:32:11;94818.34;;;-4.75;82.22
13041;BME280;6587;42.728;23.288;2024-01-15T00:34:37;94824.06;;;-4.87;83.41
13041;BME280;6587;42.728;23.288;2024-01-15T00:37:04;94823.19;;;-4.82;81.81
13041;BME280;6587;42.728;23.288;2024-01-15T00:39:33;94818.44;;;-4.58;81.92
13041;BME280;6587;42.728;23.288;2024-01-15T00:42:01;94821.25;;;-4.46;81.73
13041;BME280;6587;42.728;23.288;2024-01-15T00:44:28;94821.13;;;-4.71;80.46
13041;BME280;6587;42.728;23.288;2024-01-15T00:46:55;94812.81;;;-4.82;81.23
13041;BME280;6587;42.728;23.288;2024-01-15T00:49:22;94815.88;;;-4.80;81.35
13041;BME280;6587;42.728;23.288;2024-01-15T00:51:49;94812.97;;;-4.78;81.91
13041;BME280;6587;42.728;23.288;2024-01-15T00:54:17;94817.25;;;-4.52;81.72
13041;BME280;6587;42.728;23.288;2024-01-15T00:56:45;94819.91;;;-4.43;80.81
13041;BME280;6587;42.728;23.288;2024-01-15T00:59:12;94814.69;;;-4.74;80.74
13041;BME280;6587;42.728;23.288;2024-01-15T01:01:40;94821.72;;;-4.44;80.27
13041;BME280;6587;42.728;23.288;2024-01-15T01:04:08;94805.16;;;-4.87;79.97
13041;BME280;6587;42.728;23.288;2024-01-15T01:06:35;94816.69;;;-4.93;80.38
13041;BME280;6587;42.728;23.288;2024-01-15T01:09:02;94816.66;;;-5.02;80.33
13041;BME280;6587;42.728;23.288;2024-01-15T01:11:30;94814.41;;;-5.17;80.52
13041;BME280;6587;42.728;23.288;2024-01-15T01:13:58;94806.97;;;-5.10;80.54
13041;BME280;6587;42.728;23.288;2024-01-15T01:16:26;94816.66;;;-5.02;80.37
13041;BME280;6587;42.728;23.288;2024-01-15T01:18:53;94804.78;;;-4.94;79.17
13041;BME280;6587;42.728;23.288;2024-01-15T01:21:20;94812.34;;;-5.06;80.26
13041;BME280;6587;42.728;23.288;2024-01-15T01:23:46;94808.75;;;-5.19;80.37
13041;BME280;6587;42.728;23.288;2024-01-15T01:26:15;94797.38;;;-5.09;80.38
13041;BME280;6587;42.728;23.288;2024-01-15T01:28:42;94794.91;;;-5.14;80.13
13041;BME280;6587;42.728;23.288;2024-01-15T01:31:10;94787.50;;;-5.43;80.06
13041;BME280;6587;42.728;23.288;2024-01-15T01:33:38;94794.59;;;-5.35;80.75
13041;BME280;6587;42.728;23.288;2024-01-15T01:36:07;94787.69;;;-5.39;80.97
13041;BME280;6587;42.728;23.288;2024-01-15T01:38:34;94787.22;;;-5.19;80.38
13041;BME280;6587;42.728;23.288;2024-01-15T01:41:01;94783.44;;;-5.35;80.21
13041;BME280;6587;42.728;23.288;2024-01-15T01:43:28;94785.94;;;-5.66;80.86
13041;BME280;6587;42.728;23.288;2024-01-15T01:45:56;94786.50;;;-5.55;81.54
13041;BME280;6587;42.728;23.288;2024-01-15T01:48:25;94779.41;;;-5.63;81.56
13041;BME280;6587;42.728;23.288;2024-01-15T01:50:53;94778.22;;;-5.57;81.91
13041;BME280;6587;42.728;23.288;2024-01-15T01:53:21;94769.44;;;-5.70;82.06
13041;BME280;6587;42.728;23.288;2024-01-15T01:55:48;94781.06;;;-5.67;82.23
13041;BME280;6587;42.728;23.288;2024-01-15T01:58:16;94771.03;;;-5.47;82.49
13041;BME280;6587;42.728;23.288;2024-01-15T02:00:44;94774.06;;;-5.45;82.97
13041;BME280;6587;42.728;23.288;2024-01-15T02:03:11;94768.25;;;-5.28;82.54
13041;BME280;6587;42.728;23.288;2024-01-15T02:05:39;94774.75;;;-5.17;81.67
13041;BME280;6587;42.728;23.288;2024-01-15T02:08:06;94768.66;;;-5.35;81.86
13041;BME280;6587;42.728;23.288;2024-01-15T02:10:33;94769.13;;;-5.33;82.41
13041;BME280;6587;42.728;23.288;2024-01-15T02:13:00;94767.66;;;-5.25;81.63
13041;BME280;6587;42.728;23.288;2024-01-15T02:15:27;94757.69;;;-5.32;82.02
13041;BME280;6587;42.728;23.288;2024-01-15T02:17:59;94744.63;;;-5.27;81.00
13041;BME280;6587;42.728;23.288;2024-01-15T02:20:26;94744.63;;;-5.27;80.92
13041;BME280;6587;42.728;23.288;2024-01-15T02:23:03;94736.84;;;-5.27;81.03
13041;BME280;6587;42.728;23.288;2024-01-15T02:25:30;94711.59;;;-5.79;81.63
13041;BME280;6587;42.728;23.288;2024-01-15T02:27:57;94698.44;;;-5.47;82.37
13041;BME280;6587;42.728;23.288;2024-01-15T02:30:25;94702.22;;;-5.22;82.43
13041;BME280;6587;42.728;23.288;2024-01-15T02:32:52;94709.28;;;-5.14;82.88
13041;BME280;6587;42.728;23.288;2024-01-15T02:35:19;94709.38;;;-4.97;83.09
13041;BME280;6587;42.728;23.288;2024-01-15T02:37:46;94712.47;;;-4.87;82.31
13041;BME280;6587;42.728;23.288;2024-01-15T02:40:14;94712.91;;;-4.93;81.91
13041;BME280;6587;42.728;23.288;2024-01-15T02:42:41;94710.06;;;-4.83;80.99
13041;BME280;6587;42.728;23.288;2024-01-15T02:45:08;94711.03;;;-5.01;80.79
13041;BME280;6587;42.728;23.288;2024-01-15T02:47:35;94715.78;;;-5.03;80.15
13041;BME280;6587;42.728;23.288;2024-01-15T02:50:02;94721.16;;;-5.22;80.32
13041;BME280;6587;42.728;23.288;2024-01-15T02:52:29;94719.09;;;-5.33;80.88
13041;BME280;6587;42.728;23.288;2024-01-15T02:54:56;94716.50;;;-5.33;81.52
13041;BME280;6587;42.728;23.288;2024-01-15T02:57:24;94717.38;;;-5.38;80.57
13041;BME280;6587;42.728;23.288;2024-01-15T02:59:51;94713.44;;;-5.35;81.44
13041;BME280;6587;42.728;23.288;2024-01-15T03:02:18;94708.50;;;-5.45;81.72
13041;BME280;6587;42.728;23.288;2024-01-15T03:04:45;94702.84;;;-5.47;82.42
13041;BME280;6587;42.728;23.288;2024-01-15T03:07:12;94711.69;;;-5.48;81.53
13041;BME280;6587;42.728;23.288;2024-01-15T03:09:39;94706.34;;;-5.65;81.25
13041;BME280;6587;42.728;23.288;2024-01-15T03:12:06;94707.47;;;-6.02;82.37
13041;BME280;6587;42.728;23.288;2024-01-15T03:14:35;94703.75;;;-6.09;82.64
13041;BME280;6587;42.728;23.288;2024-01-15T03:17:02;94699.59;;;-5.75;83.20
13041;BME280;6587;42.728;23.288;2024-01-15T03:19:29;94698.06;;;-5.54;82.24
13041;BME280;6587;42.728;23.288;2024-01-15T03:21:56;94700.47;;;-5.57;81.89
13041;BME280;6587;42.728;23.288;2024-01-15T03:24:22;94695.16;;;-5.52;81.59
13041;BME280;6587;42.728;23.288;2024-01-15T03:26:49;94691.16;;;-5.58;82.38
13041;BME280;6587;42.728;23.288;2024-01-15T03:29:16;94688.28;;;-5.35;81.24
13041;BME280;6587;42.728;23.288;2024-01-15T03:31:44;94686.56;;;-5.61;80.79
13041;BME280;6587;42.728;23.288;2024-01-15T03:34:11;94683.19;;;-5.40;81.14
13041;BME280;6587;42.728;23.288;2024-01-15T03:36:38;94686.56;;;-5.39;80.49
13041;BME280;6587;42.728;23.288;2024-01-15T03:39:06;94688.81;;;-5.46;79.88
13041;BME280;6587;42.728;23.288;2024-01-15T03:41:33;94697.69;;;-6.05;81.06
13041;BME280;6587;42.728;23.288;2024-01-15T03:44:00;94690.16;;;-5.71;81.61
13041;BME280;6587;42.728;23.288;2024-01-15T03:46:27;94684.00;;;-5.61;81.19
13041;BME280;6587;42.728;23.288;2024-01-15T03:48:55;94686.63;;;-5.53;80.39
13041;BME280;6587;42.728;23.288;2024-01-15T03:51:23;94679.63;;;-5.52;80.52
13041;BME280;6587;42.728;23.288;2024-01-15T03:53:50;94685.75;;;-5.48;80.97
13041;BME280;6587;42.728;23.288;2024-01-15T03:56:16;94693.88;;;-5.41;80.36
13041;BME280;6587;42.728;23.288;2024-01-15T03:58:43;94685.16;;;-5.45;81.31
13041;BME280;6587;42.728;23.288;2024-01-15T04:01:10;94674.53;;;-5.35;80.28
13041;BME280;6587;42.728;23.288;2024-01-15T04:03:37;94679.72;;;-5.35;80.60
13041;BME280;6587;42.728;23.288;2024-01-15T04:06:06;94667.13;;;-5.28;79.96
13041;BME280;6587;42.728;23.288;2024-01-15T04:08:33;94668.25;;;-5.43;80.27
13041;BME280;6587;42.728;23.288;2024-01-15T04:11:00;94665.94;;;-5.44;80.14
13041;BME280;6587;42.728;23.288;2024-01-15T04:13:27;94673.72;;;-5.44;79.71
13041;BME280;6587;42.728;23.288;2024-01-15T04:15:54;94670.91;;;-5.78;80.44
13041;BME280;6587;42.728;23.288;2024-01-15T04:18:21;94674.41;;;-5.83;81.45
13041;BME280;6587;42.728;23.288;2024-01-15T04:20:47;94660.84;;;-5.58;81.49
13041;BME280;6587;42.728;23.288;2024-01-15T04:23:16;94662.66;;;-5.58;81.53
13041;BME280;6587;42.728;23.288;2024-01-15T04:25:42;94665.34;;;-5.41;81.19
13041;BME280;6587;42.728;23.288;2024-01-15T04:28:11;94660.69;;;-5.31;81.49
13041;BME280;6587;42.728;23.288;2024-01-15T04:30:38;94653.38;;;-5.29;81.36
13041;BME280;6587;42.728;23.288;2024-01-15T04:33:05;94655.06;;;-5.24;80.03
13041;BME280;6587;42.728;23.288;2024-01-15T04:35:32;94654.63;;;-5.26;80.62
13041;BME280;6587;42.728;23.288;2024-01-15T04:37:59;94667.13;;;-5.28;80.26
13041;BME280;6587;42.728;23.288;2024-01-15T04:40:27;94661.34;;;-5.47;80.42
13041;BME280;6587;42.728;23.288;2024-01-15T04:42:54;94662.19;;;-6.04;82.30
13041;BME280;6587;42.728;23.288;2024-01-15T04:45:21;94650.78;;;-5.59;82.73
13041;BME280;6587;42.728;23.288;2024-01-15T04:47:53;94661.00;;;-5.54;81.69
13041;BME280;6587;42.728;23.288;2024-01-15T04:50:21;94649.03;;;-5.42;81.75
13041;BME280;6587;42.728;23.288;2024-01-15T04:52:49;94661.25;;;-5.42;82.16
13041;BME280;6587;42.728;23.288;2024-01-15T04:55:16;94651.56;;;-5.28;82.45
13041;BME280;6587;42.728;23.288;2024-01-15T04:57:44;94643.16;;;-5.25;82.04
13041;BME280;6587;42.728;23.288;2024-01-15T05:00:12;94647.34;;;-5.16;82.03
13041;BME280;6587;42.728;23.288;2024-01-15T05:02:40;94641.91;;;-5.36;82.23
13041;BME280;6587;42.728;23.288;2024-01-15T05:05:07;94643.34;;;-5.22;82.28
13041;BME280;6587;42.728;23.288;2024-01-15T05:07:33;94633.53;;;-4.94;81.60
13041;BME280;6587;42.728;23.288;2024-01-15T05:10:00;94631.84;;;-4.90;81.41
13041;BME280;6587;42.728;23.288;2024-01-15T05:12:27;94637.25;;;-4.78;81.22
13041;BME280;6587;42.728;23.288;2024-01-15T05:14:56;94631.47;;;-4.75;80.64
13041;BME280;6587;42.728;23.288;2024-01-15T05:17:22;94624.00;;;-4.59;80.81
13041;BME280;6587;42.728;23.288;2024-01-15T05:19:49;94636.53;;;-4.61;80.87
13041;BME280;6587;42.728;23.288;2024-01-15T05:22:16;94635.63;;;-4.57;80.56
13041;BME280;6587;42.728;23.288;2024-01-15T05:24:43;94637.31;;;-4.61;80.98
13041;BME280;6587;42.728;23.288;2024-01-15T05:27:10;94635.09;;;-4.76;80.61
13041;BME280;6587;42.728;23.288;2024-01-15T05:29:37;94633.88;;;-4.87;80.71
13041;BME280;6587;42.728;23.288;2024-01-15T05:32:05;94635.06;;;-4.93;80.83
13041;BME280;6587;42.728;23.288;2024-01-15T05:34:31;94624.25;;;-4.87;80.22
13041;BME280;6587;42.728;23.288;2024-01-15T05:36:58;94624.25;;;-4.87;80.37
13041;BME280;6587;42.728;23.288;2024-01-15T05:39:25;94611.13;;;-4.82;80.34
13041;BME280;6587;42.728;23.288;2024-01-15T05:41:52;94624.88;;;-4.72;80.15
13041;BME280;6587;42.728;23.288;2024-01-15T05:44:19;94613.06;;;-5.35;81.71
13041;BME280;6587;42.728;23.288;2024-01-15T05:46:46;94614.72;;;-5.08;82.14
13041;BME280;6587;42.728;23.288;2024-01-15T05:49:14;94592.03;;;-4.94;80.77
13041;BME280;6587;42.728;23.288;2024-01-15T05:51:41;94595.22;;;-4.97;81.30
13041;BME280;6587;42.728;23.288;2024-01-15T05:54:08;94601.53;;;-4.72;81.31
13041;BME280;6587;42.728;23.288;2024-01-15T05:56:35;94601.88;;;-4.57;80.27
13041;BME280;6587;42.728;23.288;2024-01-15T05:59:02;94601.13;;;-4.57;80.21
13041;BME280;6587;42.728;23.288;2024-01-15T06:01:29;94621.31;;;-4.37;80.41
13041;BME280;6587;42.728;23.288;2024-01-15T06:03:55;94616.38;;;-4.64;80.06
13041;BME280;6587;42.728;23.288;2024-01-15T06:06:24;94628.53;;;-4.82;80.35
13041;BME280;6587;42.728;23.288;2024-01-15T06:08:51;94625.88;;;-4.99;81.21
13041;BME280;6587;42.728;23.288;2024-01-15T06:11:18;94619.44;;;-5.10;81.75
13041;BME280;6587;42.728;23.288;2024-01-15T06:13:45;94614.75;;;-5.00;82.42
13041;BME280;6587;42.728;23.288;2024-01-15T06:16:14;94602.41;;;-4.94;81.80
13041;BME280;6587;42.728;23.288;2024-01-15T06:18:42;94609.16;;;-4.76;82.00
13041;BME280;6587;42.728;23.288;2024-01-15T06:21:08;94600.00;;;-4.65;81.86
13041;BME280;6587;42.728;23.288;2024-01-15T06:23:37;94589.38;;;-4.46;81.38
13041;BME280;6587;42.728;23.288;2024-01-15T06:26:04;94589.34;;;-4.55;81.47
13041;BME280;6587;42.728;23.288;2024-01-15T06:28:31;94599.91;;;-4.34;81.41
13041;BME280;6587;42.728;23.288;2024-01-15T06:30:58;94600.22;;;-3.93;80.28
13041;BME280;6587;42.728;23.288;2024-01-15T06:33:25;94607.13;;;-4.06;79.38
13041;BME280;6587;42.728;23.288;2024-01-15T06:35:52;94615.97;;;-3.98;78.55
13041;BME280;6587;42.728;23.288;2024-01-15T06:38:19;94616.13;;;-4.03;79.30
13041;BME280;6587;42.728;23.288;2024-01-15T06:40:47;94601.75;;;-3.92;79.51
13041;BME280;6587;42.728;23.288;2024-01-15T06:43:14;94605.25;;;-3.88;79.14
13041;BME280;6587;42.728;23.288;2024-01-15T06:45:41;94604.75;;;-3.65;79.23
13041;BME280;6587;42.728;23.288;2024-01-15T06:48:08;94599.81;;;-3.41;78.33
13041;BME280;6587;42.728;23.288;2024-01-15T06:50:35;94603.50;;;-3.42;77.70
13041;BME280;6587;42.728;23.288;2024-01-15T06:53:02;94602.00;;;-3.60;78.30
13041;BME280;6587;42.728;23.288;2024-01-15T06:55:29;94607.94;;;-3.34;78.26
13041;BME280;6587;42.728;23.288;2024-01-15T06:57:57;94612.75;;;-3.15;77.93
13041;BME280;6587;42.728;23.288;2024-01-15T07:00:24;94621.66;;;-3.25;77.86
13041;BME280;6587;42.728;23.288;2024-01-15T07:02:51;94630.25;;;-3.33;77.69
13041;BME280;6587;42.728;23.288;2024-01-15T07:05:18;94627.31;;;-3.23;78.00
13041;BME280;6587;42.728;23.288;2024-01-15T07:07:45;94617.13;;;-3.45;77.62
13041;BME280;6587;42.728;23.288;2024-01-15T07:10:13;94608.88;;;-3.47;78.19
13041;BME280;6587;42.728;23.288;2024-01-15T07:12:42;94612.16;;;-3.21;77.65
13041;BME280;6587;42.728;23.288;2024-01-15T07:15:10;94615.50;;;-3.11;77.58
13041;BME280;6587;42.728;23.288;2024-01-15T07:17:38;94629.59;;;-2.75;76.68
13041;BME280;6587;42.728;23.288;2024-01-15T07:20:06;94625.00;;;-2.78;76.51
13041;BME280;6587;42.728;23.288;2024-01-15T07:22:35;94628.69;;;-2.50;75.41
13041;BME280;6587;42.728;23.288;2024-01-15T07:25:02;94616.16;;;-2.56;75.63
13041;BME280;6587;42.728;23.288;2024-01-15T07:27:30;94614.03;;;-2.63;75.85
13041;BME280;6587;42.728;23.288;2024-01-15T07:29:57;94615.81;;;-2.46;75.81
13041;BME280;6587;42.728;23.288;2024-01-15T07:32:26;94606.72;;;-2.40;75.39
13041;BME280;6587;42.728;23.288;2024-01-15T07:34:57;94608.97;;;-2.30;74.59
13041;BME280;6587;42.728;23.288;2024-01-15T07:37:26;94604.13;;;-2.20;73.94
13041;BME280;6587;42.728;23.288;2024-01-15T07:39:54;94607.19;;;-2.18;74.27
13041;BME280;6587;42.728;23.288;2024-01-15T07:42:21;94599.56;;;-2.23;74.20
13041;BME280;6587;42.728;23.288;2024-01-15T07:44:48;94602.47;;;-2.24;74.59
13041;BME280;6587;42.728;23.288;2024-01-15T07:47:17;94616.66;;;-2.13;74.22
13041;BME280;6587;42.728;23.288;2024-01-15T07:49:45;94622.91;;;-2.06;74.52
13041;BME280;6587;42.728;23.288;2024-01-15T07:52:12;94613.25;;;-2.05;74.22
13041;BME280;6587;42.728;23.288;2024-01-15T07:54:39;94617.53;;;-2.09;74.58
13041;BME280;6587;42.728;23.288;2024-01-15T07:57:06;94597.16;;;-2.07;75.10
13041;BME280;6587;42.728;23.288;2024-01-15T07:59:34;94577.81;;;-2.06;74.78
13041;BME280;6587;42.728;23.288;2024-01-15T08:02:02;94578.09;;;-1.87;74.01
13041;BME280;6587;42.728;23.288;2024-01-15T08:04:29;94588.50;;;-1.67;73.48
13041;BME280;6587;42.728;23.288;2024-01-15T08:06:57;94600.09;;;-1.43;72.69
13041;BME280;6587;42.728;23.288;2024-01-15T08:09:24;94608.72;;;-1.31;72.86
13041;BME280;6587;42.728;23.288;2024-01-15T08:11:51;94609.38;;;-1.34;71.88
13041;BME280;6587;42.728;23.288;2024-01-15T08:14:18;94617.34;;;-1.63;72.84
13041;BME280;6587;42.728;23.288;2024-01-15T08:16:45;94611.31;;;-1.43;73.94
13041;BME280;6587;42.728;23.288;2024-01-15T08:19:11;94601.69;;;-1.18;72.66
13041;BME280;6587;42.728;23.288;2024-01-15T08:21:39;94616.81;;;-1.12;71.69
13041;BME280;6587;42.728;23.288;2024-01-15T08:24:08;94615.97;;;-0.92;71.41
13041;BME280;6587;42.728;23.288;2024-01-15T08:26:35;94616.53;;;-0.74;71.18
13041;BME280;6587;42.728;23.288;2024-01-15T08:29:01;94607.03;;;-0.55;71.41
13041;BME280;6587;42.728;23.288;2024-01-15T08:31:28;94598.88;;;-0.41;70.11
13041;BME280;6587;42.728;23.288;2024-01-15T08:33:55;94593.81;;;0.18;69.66
13041;BME280;6587;42.728;23.288;2024-01-15T08:36:23;94595.94;;;0.40;68.34
13041;BME280;6587;42.728;23.288;2024-01-15T08:38:50;94588.69;;;0.49;67.37
13041;BME280;6587;42.728;23.288;2024-01-15T08:41:19;94594.94;;;0.87;66.62
13041;BME280;6587;42.728;23.288;2024-01-15T08:43:45;94587.22;;;0.79;65.71
13041;BME280;6587;42.728;23.288;2024-01-15T08:46:12;94591.78;;;0.82;65.80
13041;BME280;6587;42.728;23.288;2024-01-15T08:48:39;94579.44;;;0.67;64.84
13041;BME280;6587;42.728;23.288;2024-01-15T08:51:06;94585.09;;;0.69;65.33
13041;BME280;6587;42.728;23.288;2024-01-15T08:53:33;94574.06;;;0.91;65.04
13041;BME280;6587;42.728;23.288;2024-01-15T08:56:00;94559.94;;;0.80;64.01
13041;BME280;6587;42.728;23.288;2024-01-15T08:58:28;94548.69;;;0.64;64.53
13041;BME280;6587;42.728;23.288;2024-01-15T09:00:55;94559.00;;;0.88;65.34
13041;BME280;6587;42.728;23.288;2024-01-15T09:03:22;94567.47;;;0.97;64.36
13041;BME280;6587;42.728;23.288;2024-01-15T09:05:49;94558.41;;;0.79;64.98
13041;BME280;6587;42.728;23.288;2024-01-15T09:08:16;94546.22;;;1.02;64.78
13041;BME280;6587;42.728;23.288;2024-01-15T09:10:43;94526.28;;;0.82;63.63
13041;BME280;6587;42.728;23.288;2024-01-15T09:13:11;94524.28;;;0.91;64.64
13041;BME280;6587;42.728;23.288;2024-01-15T09:15:40;94522.94;;;0.97;64.31
13041;BME280;6587;42.728;23.288;2024-01-15T09:18:07;94527.78;;;1.29;64.16
13041;BME280;6587;42.728;23.288;2024-01-15T09:20:33;94523.97;;;1.61;62.91
13041;BME280;6587;42.728;23.288;2024-01-15T09:23:00;94509.06;;;1.46;62.84
13041;BME280;6587;42.728;23.288;2024-01-15T09:25:28;94510.19;;;1.45;62.71
13041;BME280;6587;42.728;23.288;2024-01-15T09:27:54;94496.16;;;1.22;64.50
13041;BME280;6587;42.728;23.288;2024-01-15T09:30:21;94515.03;;;1.28;64.37
13041;BME280;6587;42.728;23.288;2024-01-15T09:32:49;94495.16;;;2.19;63.29
13041;BME280;6587;42.728;23.288;2024-01-15T09:35:16;94492.09;;;3.03;60.73
13041;BME280;6587;42.728;23.288;2024-01-15T09:37:44;94490.38;;;3.41;59.21
13041;BME280;6587;42.728;23.288;2024-01-15T09:40:13;94491.81;;;3.94;57.91
13041;BME280;6587;42.728;23.288;2024-01-15T09:42:41;94478.06;;;3.78;56.70
13041;BME280;6587;42.728;23.288;2024-01-15T09:45:09;94477.69;;;3.76;55.72
13041;BME280;6587;42.728;23.288;2024-01-15T09:47:36;94462.81;;;4.63;54.69
13041;BME280;6587;42.728;23.288;2024-01-15T09:50:06;94442.19;;;4.72;53.93
13041;BME280;6587;42.728;23.288;2024-01-15T09:52:34;94451.78;;;4.98;53.89
13041;BME280;6587;42.728;23.288;2024-01-15T09:55:03;94422.34;;;4.89;53.38
13041;BME280;6587;42.728;23.288;2024-01-15T09:57:31;94440.81;;;4.93;54.14
13041;BME280;6587;42.728;23.288;2024-01-15T10:00:01;94435.28;;;5.73;51.60
13041;BME280;6587;42.728;23.288;2024-01-15T10:02:31;94454.34;;;5.42;51.31
13041;BME280;6587;42.728;23.288;2024-01-15T10:04:58;94446.81;;;4.90;52.04
13041;BME280;6587;42.728;23.288;2024-01-15T10:07:26;94424.41;;;5.20;51.78
13041;BME280;6587;42.728;23.288;2024-01-15T10:09:55;94409.78;;;5.30;51.99
13041;BME280;6587;42.728;23.288;2024-01-15T10:12:22;94401.06;;;6.08;51.33
13041;BME280;6587;42.728;23.288;2024-01-15T10:14:50;94399.97;;;6.26;50.44
13041;BME280;6587;42.728;23.288;2024-01-15T10:17:17;94400.75;;;7.22;48.91
13041;BME280;6587;42.728;23.288;2024-01-15T10:19:45;94401.53;;;6.91;47.07
13041;BME280;6587;42.728;23.288;2024-01-15T10:22:13;94384.53;;;6.92;47.22
13041;BME280;6587;42.728;23.288;2024-01-15T10:24:42;94382.38;;;7.80;45.70
13041;BME280;6587;42.728;23.288;2024-01-15T10:27:10;94380.16;;;7.75;46.54
13041;BME280;6587;42.728;23.288;2024-01-15T10:29:37;94377.63;;;7.47;45.41
13041;BME280;6587;42.728;23.288;2024-01-15T10:32:06;94383.03;;;6.70;46.46
13041;BME280;6587;42.728;23.288;2024-01-15T10:34:37;94379.25;;;6.92;46.67
13041;BME280;6587;42.728;23.288;2024-01-15T10:37:04;94375.06;;;8.05;45.70
13041;BME280;6587;42.728;23.288;2024-01-15T10:39:32;94366.66;;;8.24;44.01
13041;BME280;6587;42.728;23.288;2024-01-15T10:42:00;94371.16;;;8.38;43.35
13041;BME280;6587;42.728;23.288;2024-01-15T10:44:27;94363.22;;;8.31;43.52
13041;BME280;6587;42.728;23.288;2024-01-15T10:46:55;94367.28;;;8.46;44.03
13041;BME280;6587;42.728;23.288;2024-01-15T10:49:22;94362.84;;;7.53;44.35
13041;BME280;6587;42.728;23.288;2024-01-15T10:51:53;94358.25;;;8.87;43.43
13041;BME280;6587;42.728;23.288;2024-01-15T10:54:20;94344.34;;;9.50;42.03
13041;BME280;6587;42.728;23.288;2024-01-15T10:56:50;94346.00;;;9.98;40.55
13041;BME280;6587;42.728;23.288;2024-01-15T10:59:21;94349.81;;;9.67;39.95
13041;BME280;6587;42.728;23.288;2024-01-15T11:01:49;94344.44;;;9.74;40.37
13041;BME280;6587;42.728;23.288;2024-01-15T11:04:19;94341.28;;;10.39;39.00
13041;BME280;6587;42.728;23.288;2024-01-15T11:06:50;94332.34;;;10.26;39.15
13041;BME280;6587;42.728;23.288;2024-01-15T11:09:17;94324.19;;;11.71;35.94
13041;BME280;6587;42.728;23.288;2024-01-15T11:11:45;94322.41;;;11.65;34.75
13041;BME280;6587;42.728;23.288;2024-01-15T11:14:39;94313.97;;;10.84;36.18
13041;BME280;6587;42.728;23.288;2024-01-15T11:17:09;94312.16;;;10.32;36.98
13041;BME280;6587;42.728;23.288;2024-01-15T11:19:37;94303.06;;;9.99;37.46
13041;BME280;6587;42.728;23.288;2024-01-15T11:22:07;94313.00;;;9.95;37.67
13041;BME280;6587;42.728;23.288;2024-01-15T11:24:38;94311.69;;;9.50;37.86
13041;BME280;6587;42.728;23.288;2024-01-15T11:27:06;94308.66;;;9.82;38.56
13041;BME280;6587;42.728;23.288;2024-01-15T11:29:35;94306.13;;;9.04;39.80
13041;BME280;6587;42.728;23.288;2024-01-15T11:32:05;94296.28;;;9.04;39.20
13041;BME280;6587;42.728;23.288;2024-01-15T11:34:52;94305.63;;;10.10;38.12
13041;BME280;6587;42.728;23.288;2024-01-15T11:37:20;94297.09;;;10.22;38.14
13041;BME280;6587;42.728;23.288;2024-01-15T11:39:47;94296.22;;;8.71;39.25
13041;BME280;6587;42.728;23.288;2024-01-15T11:42:14;94288.66;;;8.18;40.36
13041;BME280;6587;42.728;23.288;2024-01-15T11:44:41;94291.31;;;8.22;40.62
13041;BME280;6587;42.728;23.288;2024-01-15T11:47:11;94293.56;;;8.27;40.48
13041;BME280;6587;42.728;23.288;2024-01-15T11:49:58;94281.22;;;7.34;42.08
13041;BME280;6587;42.728;23.288;2024-01-15T11:52:26;94283.41;;;7.49;43.15
13041;BME280;6587;42.728;23.288;2024-01-15T11:54:57;94277.03;;;7.36;43.25
13041;BME280;6587;42.728;23.288;2024-01-15T11:57:37;94262.09;;;6.88;43.97
13041;BME280;6587;42.728;23.288;2024-01-15T12:00:09;94270.84;;;6.64;44.63
13041;BME280;6587;42.728;23.288;2024-01-15T12:02:42;94262.53;;;6.62;44.58
13041;BME280;6587;42.728;23.288;2024-01-15T12:05:09;94271.25;;;6.23;44.42
13041;BME280;6587;42.728;23.288;2024-01-15T12:07:38;94273.13;;;5.91;45.53
13041;BME280;6587;42.728;23.288;2024-01-15T12:10:08;94265.97;;;6.09;47.97
13041;BME280;6587;42.728;23.288;2024-01-15T12:12:49;94249.72;;;6.43;47.70
13041;BME280;6587;42.728;23.288;2024-01-15T12:15:19;94248.22;;;6.24;46.21
13041;BME280;6587;42.728;23.288;2024-01-15T12:17:47;94249.75;;;6.21;46.86
13041;BME280;6587;42.728;23.288;2024-01-15T12:20:14;94249.75;;;6.32;47.71
13041;BME280;6587;42.728;23.288;2024-01-15T12:22:42;94240.66;;;6.36;47.70
13041;BME280;6587;42.728;23.288;2024-01-15T12:25:09;94246.72;;;6.30;48.12
13041;BME280;6587;42.728;23.288;2024-01-15T12:27:36;94245.56;;;5.71;47.44
13041;BME280;6587;42.728;23.288;2024-01-15T12:30:04;94249.63;;;5.44;48.25
13041;BME280;6587;42.728;23.288;2024-01-15T12:32:32;94234.09;;;5.11;50.05
13041;BME280;6587;42.728;23.288;2024-01-15T12:35:02;94217.66;;;5.81;50.91
13041;BME280;6587;42.728;23.288;2024-01-15T12:37:30;94219.94;;;6.03;49.83
13041;BME280;6587;42.728;23.288;2024-01-15T12:39:58;94216.16;;;6.01;49.28
13041;BME280;6587;42.728;23.288;2024-01-15T12:42:25;94223.59;;;5.36;49.15
13041;BME280;6587;42.728;23.288;2024-01-15T12:44:55;94217.88;;;5.06;49.97
13041;BME280;6587;42.728;23.288;2024-01-15T12:47:22;94214.53;;;5.26;50.61
13041;BME280;6587;42.728;23.288;2024-01-15T12:49:51;94214.91;;;5.21;50.14
13041;BME280;6587;42.728;23.288;2024-01-15T12:52:21;94223.75;;;4.74;50.94
13041;BME280;6587;42.728;23.288;2024-01-15T12:54:48;94199.97;;;4.57;50.89
13041;BME280;6587;42.728;23.288;2024-01-15T12:57:15;94212.34;;;4.46;50.93
13041;BME280;6587;42.728;23.288;2024-01-15T12:59:43;94212.28;;;4.39;51.45
13041;BME280;6587;42.728;23.288;2024-01-15T13:02:10;94201.09;;;4.52;52.32
13041;BME280;6587;42.728;23.288;2024-01-15T13:04:37;94191.41;;;4.74;51.72